createdAt,value
2023-04-01T00:00:36.170Z,93767.00
2023-04-01T00:01:36.140Z,93765.00
2023-04-01T00:02:36.212Z,93761.00
2023-04-01T00:03:36.305Z,93760.00
2023-04-01T00:04:36.263Z,93760.00
2023-04-01T00:05:36.203Z,93763.00
2023-04-01T00:06:36.209Z,93763.00
2023-04-01T00:07:36.251Z,93761.00
2023-04-01T00:08:36.258Z,93758.00
2023-04-01T00:09:36.273Z,93760.00
2023-04-01T00:10:36.273Z,93760.00
2023-04-01T00:11:36.353Z,93765.00
2023-04-01T00:12:36.386Z,93763.00
2023-04-01T00:13:36.380Z,93765.00
2023-04-01T00:14:36.397Z,93763.00
2023-04-01T00:15:36.471Z,93761.00
2023-04-01T00:16:36.432Z,93763.00
2023-04-01T00:17:36.494Z,93765.00
2023-04-01T00:18:36.448Z,93765.00
2023-04-01T00:19:36.456Z,93765.00
2023-04-01T00:20:36.509Z,93767.00
2023-04-01T00:21:36.511Z,93767.00
2023-04-01T00:22:36.540Z,93763.00
2023-04-01T00:23:36.599Z,93765.00
2023-04-01T00:24:36.604Z,93763.00
2023-04-01T00:25:36.609Z,93760.00
2023-04-01T00:26:36.651Z,93756.00
2023-04-01T00:27:36.670Z,93752.00
2023-04-01T00:28:36.664Z,93756.00
2023-04-01T00:29:36.682Z,93754.00
2023-04-01T00:30:36.718Z,93754.00
2023-04-01T00:31:36.872Z,93750.00
2023-04-01T00:32:36.776Z,93748.00
2023-04-01T00:33:36.845Z,93750.00
2023-04-01T00:34:36.813Z,93750.00
2023-04-01T00:35:36.826Z,93754.00
2023-04-01T00:36:36.866Z,93756.00
2023-04-01T00:37:36.868Z,93756.00
2023-04-01T00:38:36.914Z,93758.00
2023-04-01T00:39:36.926Z,93754.00
2023-04-01T00:40:36.930Z,93754.00
2023-04-01T00:41:36.933Z,93754.00
2023-04-01T00:42:36.977Z,93750.00
2023-04-01T00:43:36.983Z,93750.00
2023-04-01T00:44:37.015Z,93750.00
2023-04-01T00:45:37.075Z,93748.00
2023-04-01T00:46:37.103Z,93746.00
2023-04-01T00:47:37.097Z,93744.00
2023-04-01T00:48:37.119Z,93748.00
2023-04-01T00:49:37.135Z,93750.00
2023-04-01T00:50:37.127Z,93752.00
2023-04-01T00:51:37.181Z,93758.00
2023-04-01T00:52:37.186Z,93750.00
2023-04-01T00:53:37.210Z,93750.00
2023-04-01T00:54:37.292Z,93750.00
2023-04-01T00:55:37.298Z,93754.00
2023-04-01T00:56:37.299Z,93756.00
2023-04-01T00:57:37.313Z,93754.00
2023-04-01T00:58:37.346Z,93752.00
2023-04-01T00:59:37.385Z,93752.00
2023-04-01T01:00:37.516Z,93746.00
2023-04-01T01:01:37.446Z,93746.00
2023-04-01T01:02:37.725Z,93748.00
2023-04-01T01:03:37.535Z,93754.00
2023-04-01T01:04:37.536Z,93752.00
2023-04-01T01:05:48.469Z,93748.00
2023-04-01T01:06:38.608Z,93742.00
2023-04-01T01:07:37.539Z,93740.00
2023-04-01T01:08:37.553Z,93740.00
2023-04-01T01:09:37.533Z,93738.00
2023-04-01T01:10:37.555Z,93740.00
2023-04-01T01:11:43.241Z,93740.00
2023-04-01T01:12:38.546Z,93742.00
2023-04-01T01:13:37.528Z,93740.00
2023-04-01T01:14:37.501Z,93738.00
2023-04-01T01:15:37.500Z,93738.00
2023-04-01T01:16:37.533Z,93736.00
2023-04-01T01:17:37.510Z,93738.00
2023-04-01T01:18:37.451Z,93736.00
2023-04-01T01:19:37.454Z,93736.00
2023-04-01T01:20:37.448Z,93736.00
2023-04-01T01:21:37.439Z,93734.00
2023-04-01T01:22:37.437Z,93732.00
2023-04-01T01:23:37.452Z,93728.00
2023-04-01T01:24:37.420Z,93730.00
2023-04-01T01:25:37.443Z,93730.00
2023-04-01T01:26:37.419Z,93732.00
2023-04-01T01:27:37.423Z,93734.00
2023-04-01T01:28:37.377Z,93734.00
2023-04-01T01:29:37.439Z,93732.00
2023-04-01T01:30:37.531Z,93732.00
2023-04-01T01:31:37.508Z,93734.00
2023-04-01T01:32:37.556Z,93736.00
2023-04-01T01:33:37.555Z,93738.00
2023-04-01T01:34:37.604Z,93736.00
2023-04-01T01:35:37.608Z,93734.00
2023-04-01T01:36:37.689Z,93730.00
2023-04-01T01:37:37.698Z,93732.00
2023-04-01T01:38:37.711Z,93730.00
2023-04-01T01:39:37.713Z,93730.00
2023-04-01T01:40:37.744Z,93732.00
2023-04-01T01:41:37.776Z,93730.00
2023-04-01T01:42:37.809Z,93730.00
2023-04-01T01:43:37.880Z,93730.00
2023-04-01T01:44:37.837Z,93728.00
2023-04-01T01:45:37.899Z,93726.00
2023-04-01T01:46:38.042Z,93724.00
2023-04-01T01:47:37.947Z,93722.00
2023-04-01T01:48:37.963Z,93718.00
2023-04-01T01:49:38.008Z,93720.00
2023-04-01T01:50:38.025Z,93720.00
2023-04-01T01:51:38.035Z,93722.00
2023-04-01T01:52:38.104Z,93720.00
2023-04-01T01:53:38.116Z,93720.00
2023-04-01T01:54:38.111Z,93718.00
2023-04-01T01:55:38.115Z,93720.00
2023-04-01T01:56:38.145Z,93720.00
2023-04-01T01:57:38.203Z,93716.00
2023-04-01T01:58:38.239Z,93718.00
2023-04-01T01:59:38.213Z,93718.00
2023-04-01T02:00:38.299Z,93718.00
2023-04-01T02:01:38.277Z,93718.00
2023-04-01T02:02:38.404Z,93716.00
2023-04-01T02:03:38.361Z,93714.00
2023-04-01T02:04:38.440Z,93710.00
2023-04-01T02:05:38.388Z,93708.00
2023-04-01T02:06:38.430Z,93708.00
2023-04-01T02:07:38.465Z,93710.00
2023-04-01T02:08:38.442Z,93708.00
2023-04-01T02:09:38.476Z,93706.00
2023-04-01T02:10:38.518Z,93706.00
2023-04-01T02:11:38.558Z,93706.00
2023-04-01T02:12:38.600Z,93705.00
2023-04-01T02:13:38.598Z,93705.00
2023-04-01T02:14:38.611Z,93705.00
2023-04-01T02:15:38.656Z,93706.00
2023-04-01T02:16:38.620Z,93706.00
2023-04-01T02:17:38.712Z,93708.00
2023-04-01T02:18:38.684Z,93710.00
2023-04-01T02:19:38.730Z,93714.00
2023-04-01T02:20:38.723Z,93714.00
2023-04-01T02:21:38.760Z,93716.00
2023-04-01T02:22:38.805Z,93720.00
2023-04-01T02:23:38.845Z,93722.00
2023-04-01T02:24:38.900Z,93726.00
2023-04-01T02:25:38.892Z,93728.00
2023-04-01T02:26:38.937Z,93728.00
2023-04-01T02:27:38.963Z,93730.00
2023-04-01T02:28:38.993Z,93728.00
2023-04-01T02:29:38.999Z,93730.00
2023-04-01T02:30:39.040Z,93728.00
2023-04-01T02:31:39.098Z,93732.00
2023-04-01T02:32:39.158Z,93732.00
2023-04-01T02:33:39.087Z,93732.00
2023-04-01T02:34:39.119Z,93732.00
2023-04-01T02:35:39.138Z,93732.00
2023-04-01T02:36:39.182Z,93734.00
2023-04-01T02:37:40.359Z,93734.00
2023-04-01T02:38:39.270Z,93738.00
2023-04-01T02:39:39.278Z,93738.00
2023-04-01T02:40:39.285Z,93734.00
2023-04-01T02:41:39.326Z,93736.00
2023-04-01T02:42:39.362Z,93734.00
2023-04-01T02:43:39.401Z,93724.00
2023-04-01T02:44:39.436Z,93728.00
2023-04-01T02:45:39.480Z,93730.00
2023-04-01T02:46:39.500Z,93734.00
2023-04-01T02:47:39.550Z,93732.00
2023-04-01T02:48:39.537Z,93734.00
2023-04-01T02:49:39.531Z,93732.00
2023-04-01T02:50:39.624Z,93740.00
2023-04-01T02:51:39.634Z,93742.00
2023-04-01T02:52:39.635Z,93740.00
2023-04-01T02:53:39.673Z,93742.00
2023-04-01T02:54:39.703Z,93744.00
2023-04-01T02:55:39.757Z,93746.00
2023-04-01T02:56:39.795Z,93746.00
2023-04-01T02:57:39.829Z,93744.00
2023-04-01T02:58:39.858Z,93750.00
2023-04-01T02:59:39.888Z,93752.00
2023-04-01T03:00:39.878Z,93750.00
2023-04-01T03:01:39.955Z,93752.00
2023-04-01T03:02:40.114Z,93754.00
2023-04-01T03:03:40.016Z,93758.00
2023-04-01T03:04:40.040Z,93760.00
2023-04-01T03:05:40.066Z,93761.00
2023-04-01T03:06:40.100Z,93761.00
2023-04-01T03:07:40.150Z,93761.00
2023-04-01T03:08:40.187Z,93767.00
2023-04-01T03:09:40.247Z,93765.00
2023-04-01T03:10:40.256Z,93767.00
2023-04-01T03:11:40.313Z,93771.00
2023-04-01T03:12:40.312Z,93773.00
2023-04-01T03:13:40.355Z,93775.00
2023-04-01T03:14:40.396Z,93777.00
2023-04-01T03:15:40.397Z,93775.00
2023-04-01T03:16:40.527Z,93775.00
2023-04-01T03:17:40.493Z,93775.00
2023-04-01T03:18:40.523Z,93779.00
2023-04-01T03:19:40.567Z,93781.00
2023-04-01T03:20:40.607Z,93781.00
2023-04-01T03:21:40.661Z,93781.00
2023-04-01T03:22:42.708Z,93781.00
2023-04-01T03:23:40.723Z,93787.00
2023-04-01T03:24:40.721Z,93785.00
2023-04-01T03:25:40.784Z,93793.00
2023-04-01T03:26:40.773Z,93795.00
2023-04-01T03:27:40.847Z,93789.00
2023-04-01T03:28:40.826Z,93787.00
2023-04-01T03:29:40.932Z,93783.00
2023-04-01T03:30:40.940Z,93781.00
2023-04-01T03:31:40.980Z,93781.00
2023-04-01T03:32:41.032Z,93785.00
2023-04-01T03:33:41.034Z,93787.00
2023-04-01T03:34:41.101Z,93785.00
2023-04-01T03:35:41.100Z,93785.00
2023-04-01T03:36:41.147Z,93785.00
2023-04-01T03:37:41.164Z,93785.00
2023-04-01T03:38:41.213Z,93789.00
2023-04-01T03:39:42.110Z,93791.00
2023-04-01T03:40:41.215Z,93789.00
2023-04-01T03:41:41.281Z,93787.00
2023-04-01T03:42:41.428Z,93789.00
2023-04-01T03:43:41.343Z,93789.00
2023-04-01T03:44:41.409Z,93787.00
2023-04-01T03:45:41.425Z,93785.00
2023-04-01T03:46:41.664Z,93785.00
2023-04-01T03:47:41.576Z,93787.00
2023-04-01T03:48:41.541Z,93787.00
2023-04-01T03:49:41.634Z,93787.00
2023-04-01T03:50:41.623Z,93791.00
2023-04-01T03:51:41.659Z,93789.00
2023-04-01T03:52:41.683Z,93791.00
2023-04-01T03:53:41.783Z,93789.00
2023-04-01T03:54:41.725Z,93791.00
2023-04-01T03:55:41.821Z,93789.00
2023-04-01T03:56:41.812Z,93789.00
2023-04-01T03:57:41.872Z,93791.00
2023-04-01T03:58:41.914Z,93789.00
2023-04-01T03:59:41.914Z,93791.00
2023-04-01T04:00:41.948Z,93791.00
2023-04-01T04:01:41.978Z,93789.00
2023-04-01T04:02:42.079Z,93791.00
2023-04-01T04:03:42.147Z,93791.00
2023-04-01T04:04:42.235Z,93791.00
2023-04-01T04:05:42.124Z,93791.00
2023-04-01T04:06:42.147Z,93793.00
2023-04-01T04:07:42.179Z,93797.00
2023-04-01T04:08:42.264Z,93801.00
2023-04-01T04:09:42.239Z,93801.00
2023-04-01T04:10:42.276Z,93799.00
2023-04-01T04:11:42.308Z,93801.00
2023-04-01T04:12:42.430Z,93803.00
2023-04-01T04:13:42.426Z,93801.00
2023-04-01T04:14:42.457Z,93799.00
2023-04-01T04:15:42.513Z,93797.00
2023-04-01T04:16:42.503Z,93799.00
2023-04-01T04:17:42.625Z,93801.00
2023-04-01T04:18:42.585Z,93801.00
2023-04-01T04:19:42.615Z,93803.00
2023-04-01T04:20:42.610Z,93803.00
2023-04-01T04:21:42.689Z,93807.00
2023-04-01T04:22:42.750Z,93808.00
2023-04-01T04:23:42.769Z,93812.00
2023-04-01T04:24:42.785Z,93816.00
2023-04-01T04:25:42.825Z,93816.00
2023-04-01T04:26:42.860Z,93818.00
2023-04-01T04:27:42.936Z,93822.00
2023-04-01T04:28:42.943Z,93826.00
2023-04-01T04:29:42.992Z,93828.00
2023-04-01T04:30:43.058Z,93826.00
2023-04-01T04:31:43.127Z,93824.00
2023-04-01T04:32:43.139Z,93824.00
2023-04-01T04:33:43.100Z,93828.00
2023-04-01T04:34:43.190Z,93830.00
2023-04-01T04:35:43.160Z,93828.00
2023-04-01T04:36:43.241Z,93830.00
2023-04-01T04:37:43.281Z,93834.00
2023-04-01T04:38:43.304Z,93834.00
2023-04-01T04:39:43.359Z,93832.00
2023-04-01T04:40:43.381Z,93828.00
2023-04-01T04:41:43.435Z,93828.00
2023-04-01T04:42:43.491Z,93832.00
2023-04-01T04:43:43.554Z,93832.00
2023-04-01T04:44:43.556Z,93834.00
2023-04-01T04:45:43.620Z,93832.00
2023-04-01T04:46:43.634Z,93828.00
2023-04-01T04:47:43.698Z,93826.00
2023-04-01T04:48:43.688Z,93828.00
2023-04-01T04:49:43.737Z,93832.00
2023-04-01T04:50:43.756Z,93838.00
2023-04-01T04:51:43.813Z,93838.00
2023-04-01T04:52:43.872Z,93836.00
2023-04-01T04:53:43.950Z,93838.00
2023-04-01T04:54:43.993Z,93840.00
2023-04-01T04:55:44.015Z,93844.00
2023-04-01T04:56:44.017Z,93842.00
2023-04-01T04:57:44.057Z,93838.00
2023-04-01T04:58:44.116Z,93836.00
2023-04-01T04:59:44.136Z,93832.00
2023-04-01T05:00:44.196Z,93836.00
2023-04-01T05:01:44.432Z,93836.00
2023-04-01T05:02:44.334Z,93836.00
2023-04-01T05:03:44.333Z,93838.00
2023-04-01T05:04:44.357Z,93836.00
2023-04-01T05:05:44.409Z,93844.00
2023-04-01T05:06:44.432Z,93844.00
2023-04-01T05:07:44.481Z,93846.00
2023-04-01T05:08:44.510Z,93850.00
2023-04-01T05:09:44.543Z,93850.00
2023-04-01T05:10:44.572Z,93854.00
2023-04-01T05:11:44.639Z,93861.00
2023-04-01T05:12:44.665Z,93861.00
2023-04-01T05:13:44.683Z,93863.00
2023-04-01T05:14:44.840Z,93865.00
2023-04-01T05:15:44.794Z,93865.00
2023-04-01T05:16:44.861Z,93865.00
2023-04-01T05:17:44.898Z,93863.00
2023-04-01T05:18:44.849Z,93861.00
2023-04-01T05:19:44.967Z,93861.00
2023-04-01T05:20:44.948Z,93854.00
2023-04-01T05:21:45.010Z,93861.00
2023-04-01T05:22:45.053Z,93861.00
2023-04-01T05:23:45.123Z,93852.00
2023-04-01T05:24:45.117Z,93861.00
2023-04-01T05:25:45.181Z,93863.00
2023-04-01T05:26:45.227Z,93854.00
2023-04-01T05:27:45.228Z,93854.00
2023-04-01T05:28:45.307Z,93854.00
2023-04-01T05:29:45.348Z,93863.00
2023-04-01T05:30:45.445Z,93865.00
2023-04-01T05:31:45.412Z,93869.00
2023-04-01T05:32:45.494Z,93867.00
2023-04-01T05:33:45.522Z,93867.00
2023-04-01T05:34:45.553Z,93865.00
2023-04-01T05:35:45.645Z,93865.00
2023-04-01T05:36:45.620Z,93867.00
2023-04-01T05:37:45.648Z,93865.00
2023-04-01T05:38:45.690Z,93865.00
2023-04-01T05:39:45.715Z,93863.00
2023-04-01T05:40:45.773Z,93861.00
2023-04-01T05:41:45.833Z,93854.00
2023-04-01T05:42:45.822Z,93852.00
2023-04-01T05:43:45.910Z,93852.00
2023-04-01T05:44:45.955Z,93850.00
2023-04-01T05:45:45.984Z,93850.00
2023-04-01T05:46:46.041Z,93850.00
2023-04-01T05:47:46.127Z,93850.00
2023-04-01T05:48:46.140Z,93850.00
2023-04-01T05:49:46.183Z,93850.00
2023-04-01T05:50:46.206Z,93850.00
2023-04-01T05:51:46.234Z,93850.00
2023-04-01T05:52:46.262Z,93852.00
2023-04-01T05:53:46.334Z,93854.00
2023-04-01T05:54:46.355Z,93863.00
2023-04-01T05:55:46.398Z,93867.00
2023-04-01T05:56:48.301Z,93867.00
2023-04-01T05:57:46.425Z,93867.00
2023-04-01T05:58:46.516Z,93867.00
2023-04-01T05:59:46.539Z,93869.00
2023-04-01T06:00:47.771Z,93873.00
2023-04-01T06:01:46.614Z,93875.00
2023-04-01T06:02:46.627Z,93875.00
2023-04-01T06:03:46.796Z,93875.00
2023-04-01T06:04:46.741Z,93871.00
2023-04-01T06:05:46.763Z,93871.00
2023-04-01T06:06:46.781Z,93869.00
2023-04-01T06:07:46.794Z,93869.00
2023-04-01T06:08:46.819Z,93869.00
2023-04-01T06:09:46.922Z,93871.00
2023-04-01T06:10:46.893Z,93871.00
2023-04-01T06:11:46.956Z,93875.00
2023-04-01T06:12:47.025Z,93875.00
2023-04-01T06:13:46.994Z,93875.00
2023-04-01T06:14:47.042Z,93877.00
2023-04-01T06:15:47.046Z,93877.00
2023-04-01T06:16:47.081Z,93877.00
2023-04-01T06:17:47.176Z,93879.00
2023-04-01T06:18:47.173Z,93881.00
2023-04-01T06:19:47.264Z,93879.00
2023-04-01T06:20:47.263Z,93881.00
2023-04-01T06:21:47.331Z,93881.00
2023-04-01T06:22:47.301Z,93885.00
2023-04-01T06:23:47.368Z,93889.00
2023-04-01T06:24:47.383Z,93891.00
2023-04-01T06:25:47.421Z,93891.00
2023-04-01T06:26:47.439Z,93891.00
2023-04-01T06:27:47.508Z,93889.00
2023-04-01T06:28:47.510Z,93889.00
2023-04-01T06:29:47.539Z,93887.00
2023-04-01T06:30:47.624Z,93885.00
2023-04-01T06:31:47.643Z,93885.00
2023-04-01T06:32:47.734Z,93885.00
2023-04-01T06:33:47.653Z,93893.00
2023-04-01T06:34:47.688Z,93891.00
2023-04-01T06:35:47.760Z,93891.00
2023-04-01T06:36:47.788Z,93893.00
2023-04-01T06:37:47.808Z,93889.00
2023-04-01T06:38:47.783Z,93887.00
2023-04-01T06:39:47.850Z,93883.00
2023-04-01T06:40:47.900Z,93879.00
2023-04-01T06:41:48.021Z,93877.00
2023-04-01T06:42:47.944Z,93867.00
2023-04-01T06:43:47.975Z,93863.00
2023-04-01T06:44:48.021Z,93852.00
2023-04-01T06:45:48.205Z,93848.00
2023-04-01T06:46:48.105Z,93848.00
2023-04-01T06:47:48.087Z,93842.00
2023-04-01T06:48:48.088Z,93848.00
2023-04-01T06:49:48.128Z,93850.00
2023-04-01T06:50:48.152Z,93850.00
2023-04-01T06:51:48.211Z,93850.00
2023-04-01T06:52:48.269Z,93854.00
2023-04-01T06:53:48.262Z,93861.00
2023-04-01T06:54:48.317Z,93861.00
2023-04-01T06:55:48.353Z,93861.00
2023-04-01T06:56:48.408Z,93861.00
2023-04-01T06:57:48.376Z,93850.00
2023-04-01T06:58:48.393Z,93852.00
2023-04-01T06:59:48.458Z,93854.00
2023-04-01T07:00:48.469Z,93861.00
2023-04-01T07:01:48.608Z,93861.00
2023-04-01T07:02:48.601Z,93865.00
2023-04-01T07:03:48.555Z,93863.00
2023-04-01T07:04:48.633Z,93861.00
2023-04-01T07:05:48.612Z,93854.00
2023-04-01T07:06:55.591Z,93854.00
2023-04-01T07:07:48.649Z,93861.00
2023-04-01T07:08:48.618Z,93861.00
2023-04-01T07:09:48.605Z,93854.00
2023-04-01T07:10:48.639Z,93861.00
2023-04-01T07:11:48.644Z,93861.00
2023-04-01T07:12:48.606Z,93861.00
2023-04-01T07:13:48.613Z,93861.00
2023-04-01T07:14:48.564Z,93861.00
2023-04-01T07:15:48.678Z,93863.00
2023-04-01T07:16:48.683Z,93861.00
2023-04-01T07:17:48.610Z,93863.00
2023-04-01T07:18:48.595Z,93865.00
2023-04-01T07:19:48.527Z,93863.00
2023-04-01T07:20:48.548Z,93865.00
2023-04-01T07:21:48.527Z,93861.00
2023-04-01T07:22:48.516Z,93861.00
2023-04-01T07:23:48.523Z,93861.00
2023-04-01T07:24:48.535Z,93854.00
2023-04-01T07:25:48.516Z,93854.00
2023-04-01T07:26:48.469Z,93852.00
2023-04-01T07:27:48.490Z,93863.00
2023-04-01T07:28:48.503Z,93861.00
2023-04-01T07:29:48.505Z,93861.00
2023-04-01T07:30:48.475Z,93854.00
2023-04-01T07:31:48.447Z,93861.00
2023-04-01T07:32:48.537Z,93854.00
2023-04-01T07:33:48.437Z,93861.00
2023-04-01T07:34:48.454Z,93863.00
2023-04-01T07:35:48.445Z,93863.00
2023-04-01T07:36:48.418Z,93865.00
2023-04-01T07:37:48.434Z,93863.00
2023-04-01T07:38:48.447Z,93865.00
2023-04-01T07:39:48.359Z,93869.00
2023-04-01T07:40:48.392Z,93869.00
2023-04-01T07:41:48.380Z,93871.00
2023-04-01T07:42:48.405Z,93875.00
2023-04-01T07:43:48.365Z,93877.00
2023-04-01T07:44:48.335Z,93877.00
2023-04-01T07:45:48.339Z,93875.00
2023-04-01T07:46:48.346Z,93873.00
2023-04-01T07:47:48.450Z,93871.00
2023-04-01T07:48:48.323Z,93873.00
2023-04-01T07:49:48.322Z,93873.00
2023-04-01T07:50:49.486Z,93875.00
2023-04-01T07:51:48.302Z,93875.00
2023-04-01T07:52:48.318Z,93875.00
2023-04-01T07:53:48.312Z,93867.00
2023-04-01T07:54:48.278Z,93867.00
2023-04-01T07:55:48.334Z,93871.00
2023-04-01T07:56:48.333Z,93871.00
2023-04-01T07:57:48.353Z,93875.00
2023-04-01T07:58:48.368Z,93877.00
2023-04-01T07:59:48.366Z,93879.00
2023-04-01T08:00:48.419Z,93879.00
2023-04-01T08:01:48.408Z,93881.00
2023-04-01T08:02:48.467Z,93879.00
2023-04-01T08:03:48.665Z,93877.00
2023-04-01T08:04:48.524Z,93875.00
2023-04-01T08:05:48.472Z,93871.00
2023-04-01T08:06:48.517Z,93871.00
2023-04-01T08:07:48.536Z,93873.00
2023-04-01T08:08:48.561Z,93873.00
2023-04-01T08:09:48.565Z,93871.00
2023-04-01T08:10:48.600Z,93871.00
2023-04-01T08:11:48.651Z,93869.00
2023-04-01T08:12:48.652Z,93865.00
2023-04-01T08:13:48.672Z,93861.00
2023-04-01T08:14:48.665Z,93854.00
2023-04-01T08:15:48.687Z,93861.00
2023-04-01T08:16:48.675Z,93854.00
2023-04-01T08:17:48.704Z,93854.00
2023-04-01T08:18:48.696Z,93852.00
2023-04-01T08:19:48.726Z,93861.00
2023-04-01T08:20:48.774Z,93861.00
2023-04-01T08:21:48.731Z,93854.00
2023-04-01T08:22:48.764Z,93854.00
2023-04-01T08:23:48.826Z,93852.00
2023-04-01T08:24:48.830Z,93854.00
2023-04-01T08:25:48.793Z,93850.00
2023-04-01T08:26:48.864Z,93848.00
2023-04-01T08:27:48.849Z,93846.00
2023-04-01T08:28:48.856Z,93840.00
2023-04-01T08:29:48.907Z,93838.00
2023-04-01T08:30:48.870Z,93836.00
2023-04-01T08:31:48.973Z,93830.00
2023-04-01T08:32:48.962Z,93832.00
2023-04-01T08:33:48.919Z,93830.00
2023-04-01T08:34:48.963Z,93830.00
2023-04-01T08:35:48.966Z,93830.00
2023-04-01T08:36:48.952Z,93830.00
2023-04-01T08:37:48.963Z,93832.00
2023-04-01T08:38:48.988Z,93832.00
2023-04-01T08:39:48.996Z,93830.00
2023-04-01T08:40:48.984Z,93828.00
2023-04-01T08:41:49.002Z,93826.00
2023-04-01T08:42:49.022Z,93826.00
2023-04-01T08:43:48.995Z,93828.00
2023-04-01T08:44:49.031Z,93828.00
2023-04-01T08:45:49.069Z,93826.00
2023-04-01T08:46:49.120Z,93826.00
2023-04-01T08:47:49.119Z,93824.00
2023-04-01T08:48:49.030Z,93826.00
2023-04-01T08:49:49.111Z,93826.00
2023-04-01T08:50:49.050Z,93826.00
2023-04-01T08:51:49.049Z,93824.00
2023-04-01T08:52:49.048Z,93824.00
2023-04-01T08:53:49.032Z,93828.00
2023-04-01T08:54:49.044Z,93826.00
2023-04-01T08:55:49.045Z,93826.00
2023-04-01T08:56:49.106Z,93824.00
2023-04-01T08:57:50.489Z,93828.00
2023-04-01T08:58:49.077Z,93824.00
2023-04-01T08:59:49.040Z,93824.00
2023-04-01T09:00:49.078Z,93822.00
2023-04-01T09:01:49.039Z,93824.00
2023-04-01T09:02:49.181Z,93822.00
2023-04-01T09:03:49.178Z,93824.00
2023-04-01T09:04:49.085Z,93824.00
2023-04-01T09:05:49.122Z,93826.00
2023-04-01T09:06:49.088Z,93826.00
2023-04-01T09:07:49.090Z,93826.00
2023-04-01T09:08:49.100Z,93824.00
2023-04-01T09:09:49.065Z,93822.00
2023-04-01T09:10:49.113Z,93820.00
2023-04-01T09:11:50.292Z,93820.00
2023-04-01T09:12:49.217Z,93816.00
2023-04-01T09:13:49.131Z,93818.00
2023-04-01T09:14:49.165Z,93818.00
2023-04-01T09:15:49.245Z,93810.00
2023-04-01T09:16:49.185Z,93807.00
2023-04-01T09:17:49.383Z,93805.00
2023-04-01T09:18:49.262Z,93805.00
2023-04-01T09:19:49.305Z,93803.00
2023-04-01T09:20:49.276Z,93805.00
2023-04-01T09:21:49.252Z,93803.00
2023-04-01T09:22:49.307Z,93805.00
2023-04-01T09:23:49.267Z,93805.00
2023-04-01T09:24:49.233Z,93807.00
2023-04-01T09:25:49.293Z,93803.00
2023-04-01T09:26:49.287Z,93799.00
2023-04-01T09:27:49.272Z,93799.00
2023-04-01T09:28:49.275Z,93799.00
2023-04-01T09:29:49.270Z,93799.00
2023-04-01T09:30:49.247Z,93803.00
2023-04-01T09:31:49.373Z,93799.00
2023-04-01T09:32:49.387Z,93795.00
2023-04-01T09:33:49.281Z,93795.00
2023-04-01T09:34:49.261Z,93797.00
2023-04-01T09:35:49.374Z,93795.00
2023-04-01T09:36:49.258Z,93793.00
2023-04-01T09:37:49.298Z,93791.00
2023-04-01T09:38:49.291Z,93789.00
2023-04-01T09:39:49.276Z,93787.00
2023-04-01T09:40:49.280Z,93787.00
2023-04-01T09:41:49.298Z,93785.00
2023-04-01T09:42:49.300Z,93789.00
2023-04-01T09:43:49.279Z,93783.00
2023-04-01T09:44:49.295Z,93781.00
2023-04-01T09:45:49.291Z,93781.00
2023-04-01T09:46:49.359Z,93777.00
2023-04-01T09:47:49.369Z,93773.00
2023-04-01T09:48:49.316Z,93769.00
2023-04-01T09:49:49.316Z,93769.00
2023-04-01T09:50:49.326Z,93765.00
2023-04-01T09:51:49.363Z,93763.00
2023-04-01T09:52:49.355Z,93767.00
2023-04-01T09:53:49.428Z,93765.00
2023-04-01T09:54:49.464Z,93763.00
2023-04-01T09:55:49.456Z,93758.00
2023-04-01T09:56:49.486Z,93756.00
2023-04-01T09:57:49.466Z,93760.00
2023-04-01T09:58:49.477Z,93754.00
2023-04-01T09:59:49.522Z,93752.00
2023-04-01T10:00:50.169Z,93750.00
2023-04-01T10:01:49.665Z,93744.00
2023-04-01T10:02:49.654Z,93748.00
2023-04-01T10:03:49.641Z,93748.00
2023-04-01T10:04:49.684Z,93750.00
2023-04-01T10:05:49.757Z,93746.00
2023-04-01T10:06:49.766Z,93746.00
2023-04-01T10:07:49.775Z,93750.00
2023-04-01T10:08:49.822Z,93746.00
2023-04-01T10:09:49.821Z,93748.00
2023-04-01T10:10:49.941Z,93746.00
2023-04-01T10:11:49.903Z,93744.00
2023-04-01T10:12:49.972Z,93742.00
2023-04-01T10:13:49.983Z,93746.00
2023-04-01T10:14:50.022Z,93746.00
2023-04-01T10:15:50.108Z,93746.00
2023-04-01T10:16:51.894Z,93744.00
2023-04-01T10:17:57.737Z,93740.00
2023-04-01T10:18:50.125Z,93740.00
2023-04-01T10:19:50.151Z,93736.00
2023-04-01T10:20:50.131Z,93736.00
2023-04-01T10:21:50.101Z,93734.00
2023-04-01T10:22:50.110Z,93732.00
2023-04-01T10:23:50.118Z,93728.00
2023-04-01T10:24:50.079Z,93728.00
2023-04-01T10:25:50.070Z,93730.00
2023-04-01T10:26:50.103Z,93730.00
2023-04-01T10:27:50.106Z,93730.00
2023-04-01T10:28:50.060Z,93730.00
2023-04-01T10:29:50.062Z,93728.00
2023-04-01T10:30:50.067Z,93730.00
2023-04-01T10:31:50.068Z,93722.00
2023-04-01T10:32:50.082Z,93722.00
2023-04-01T10:33:50.069Z,93722.00
2023-04-01T10:34:50.000Z,93722.00
2023-04-01T10:35:50.025Z,93718.00
2023-04-01T10:36:50.001Z,93722.00
2023-04-01T10:37:49.993Z,93718.00
2023-04-01T10:38:50.071Z,93718.00
2023-04-01T10:39:50.125Z,93716.00
2023-04-01T10:40:50.193Z,93716.00
2023-04-01T10:41:50.247Z,93716.00
2023-04-01T10:42:50.275Z,93714.00
2023-04-01T10:43:50.355Z,93712.00
2023-04-01T10:44:50.382Z,93712.00
2023-04-01T10:45:50.513Z,93708.00
2023-04-01T10:46:50.531Z,93710.00
2023-04-01T10:47:50.591Z,93708.00
2023-04-01T10:48:51.199Z,93705.00
2023-04-01T10:49:50.750Z,93706.00
2023-04-01T10:50:50.751Z,93705.00
2023-04-01T10:51:50.807Z,93710.00
2023-04-01T10:52:50.873Z,93708.00
2023-04-01T10:53:50.939Z,93708.00
2023-04-01T10:54:51.002Z,93705.00
2023-04-01T10:55:51.052Z,93705.00
2023-04-01T10:56:51.215Z,93705.00
2023-04-01T10:57:51.170Z,93701.00
2023-04-01T10:58:51.245Z,93699.00
2023-04-01T10:59:51.302Z,93697.00
2023-04-01T11:00:51.409Z,93695.00
2023-04-01T11:02:03.888Z,93699.00
2023-04-01T11:02:52.488Z,93697.00
2023-04-01T11:03:51.498Z,93693.00
2023-04-01T11:04:51.376Z,93697.00
2023-04-01T11:05:51.377Z,93699.00
2023-04-01T11:06:51.394Z,93689.00
2023-04-01T11:08:04.765Z,93691.00
2023-04-01T11:08:52.370Z,93689.00
2023-04-01T11:09:51.356Z,93687.00
2023-04-01T11:10:51.366Z,93683.00
2023-04-01T11:11:51.313Z,93685.00
2023-04-01T11:12:51.324Z,93683.00
2023-04-01T11:13:51.319Z,93683.00
2023-04-01T11:14:51.346Z,93677.00
2023-04-01T11:15:51.369Z,93675.00
2023-04-01T11:16:51.315Z,93677.00
2023-04-01T11:17:51.387Z,93675.00
2023-04-01T11:18:51.379Z,93675.00
2023-04-01T11:19:51.496Z,93677.00
2023-04-01T11:20:51.487Z,93675.00
2023-04-01T11:21:51.515Z,93679.00
2023-04-01T11:22:51.590Z,93667.00
2023-04-01T11:24:03.948Z,93667.00
2023-04-01T11:24:52.590Z,93669.00
2023-04-01T11:25:51.629Z,93667.00
2023-04-01T11:26:51.767Z,93673.00
2023-04-01T11:27:51.597Z,93669.00
2023-04-01T11:28:51.598Z,93669.00
2023-04-01T11:30:51.624Z,93667.00
2023-04-01T11:31:51.672Z,93663.00
2023-04-01T11:32:51.629Z,93667.00
2023-04-01T11:33:51.526Z,93665.00
2023-04-01T11:34:51.577Z,93663.00
2023-04-01T11:35:51.613Z,93663.00
2023-04-01T11:36:51.769Z,93663.00
2023-04-01T11:37:51.663Z,93663.00
2023-04-01T11:38:51.756Z,93661.00
2023-04-01T11:39:51.819Z,93663.00
2023-04-01T11:40:51.838Z,93658.00
2023-04-01T11:41:51.835Z,93659.00
2023-04-01T11:42:51.883Z,93658.00
2023-04-01T11:43:51.980Z,93656.00
2023-04-01T11:44:51.950Z,93650.00
2023-04-01T11:45:52.040Z,93650.00